Startpagina
METAR-TAF:

METAR-TAF

Vliegvelden :

Harbin, China

breedte: 45-45N, lengte: 126-46E, hoogte: 143 m

Actueel weer

Dit bericht is 50 minuten geleden gemaakt, om 22:00 UTC
Wind 4 kt uit het zuidzuidoosten
Temperatuur 16°C
Vochtigheid 82%
Druk 1009 hPa
Zicht 10 km of meer
geen wolken onder 1500 m en geen cumulonimbus

METAR: ZYHB 252200Z 15002MPS CAVOK 16/13 Q1009 NOSIG

Tijdstip: 06:50 (22:50 UTC)

Verwachting

Dit bericht is 7 uur en het 45 minuten geleden gemaakt, om 15:05 UTC
Verwachting geldig van 25 om 18 UTC tot 26 om 18 UTC
Wind 6 kt uit het oosten
Zicht: 6000 m
Weinig wolken op 3000 ft

TAF: ZYHB 251505Z 2518/2618 09003MPS 6000 FEW030 TX27/2606Z TN15/2520Z

Waarnemingen en weersverwachtingen van meer dan 4000 vliegvelden (METAR en TAF).

De beschikbare stations zijn de gele en rode punten op de kaart.

Ga met uw muis naar het station om de naam te zien.

Klik dan om waarnemingen en weersverwachtingen te zien.

kaart wijzigen: klik op de groene knoppen met een zwart kruis om in te zoomen, op de groene knop met een streepje om uit te zoomen of op de groene pijlen voor aangrenzende kaarten.


METAR-TAF: